Shinsei Maru — JD2188 — position and weather

sailwx.info

Track history (hours):
 
Tides and Currents Weather Stations Pressure Air Temp Water Temp Dewpoint Dewpoint Depression Visibility Wind Speed Wind Dir Waves Ship Positions

Shinsei Maru

Last reported at 2014-Nov-24 09:33 UTC. Time now 2014-Nov-24 13:50 UTC.
Position N 35°08' E 139°45'.

Length 104 m; draft 6.5 m.

Type: Tanker. MMSI: 431301775.

Date/timePositionNaut miles runAvg speedWind from/ knotsBaromVisibWave heightAir tempDewpointWater temp
2014-Nov-24 09:33N 35°08' E 139°45'1212.4
2014-Nov-24 08:33N 35°20' E 139°43'1111.2
2014-Nov-24 07:32N 35°31' E 139°46'0 0.2
2014-Nov-24 06:33N 35°31' E 139°46'0 0.0
2014-Nov-24 05:28N 35°31' E 139°46'0 0.0
2014-Nov-24 04:27N 35°31' E 139°46'0 0.0
2014-Nov-24 03:33N 35°31' E 139°46'0 0.0
2014-Nov-24 02:30N 35°31' E 139°46'0 0.0
2014-Nov-24 01:33N 35°31' E 139°46'0 0.4
2014-Nov-24 00:33N 35°31' E 139°46'7 7.2
2014-Nov-23 23:33N 35°24' E 139°45'0 0.4
2014-Nov-23 22:33N 35°23' E 139°45'0 0.0
2014-Nov-23 21:33N 35°23' E 139°45'0 0.1
2014-Nov-23 20:33N 35°23' E 139°45'4 3.5
2014-Nov-23 19:33N 35°20' E 139°43'247 7.0
2014-Nov-22 08:23N 33°57' E 135°01'1113.6
2014-Nov-22 07:33N 34°07' E 135°06'1 0.4
2014-Nov-22 04:21N 34°07' E 135°07'0 0.0
2014-Nov-22 03:09N 34°07' E 135°07'0 0.0
2014-Nov-22 01:09N 34°07' E 135°07'0 0.0
2014-Nov-22 00:15N 34°07' E 135°07'0 0.0
2014-Nov-21 23:15N 34°07' E 135°07'0 0.0
2014-Nov-21 22:21N 34°07' E 135°07'1 1.2
2014-Nov-21 21:31N 34°08' E 135°07'0 0.1
2014-Nov-21 20:31N 34°08' E 135°07'0 0.0
2014-Nov-21 19:31N 34°08' E 135°07'0 0.0
2014-Nov-21 18:31N 34°08' E 135°07'0 0.0
2014-Nov-21 17:31N 34°08' E 135°07'0 0.0
2014-Nov-21 16:28N 34°08' E 135°07'0 0.0
2014-Nov-21 15:31N 34°08' E 135°07'0 0.0
2014-Nov-21 14:31N 34°08' E 135°07'0 0.0
2014-Nov-21 13:19N 34°08' E 135°07'0 0.0
2014-Nov-21 12:31N 34°08' E 135°07'0 0.0
2014-Nov-21 11:25N 34°08' E 135°07'0 0.0
2014-Nov-21 10:31N 34°08' E 135°07'7 7.6
2014-Nov-21 09:33N 34°01' E 135°02'  
2014-Nov-15 14:19N 35°02' E 139°44'1113.8
2014-Nov-15 13:33N 35°12' E 139°46'1212.1
2014-Nov-15 12:34N 35°24' E 139°43'7 7.3
2014-Nov-15 11:32N 35°31' E 139°46'0 0.0
2014-Nov-15 10:29N 35°31' E 139°46'0 0.0
2014-Nov-15 09:32N 35°31' E 139°46'0 0.0
2014-Nov-15 08:29N 35°31' E 139°46'0 0.0
2014-Nov-15 07:29N 35°31' E 139°46'0 0.0
2014-Nov-15 06:29N 35°31' E 139°46'0 0.0
2014-Nov-15 05:29N 35°31' E 139°46'0 0.0
2014-Nov-15 04:29N 35°31' E 139°46'0 0.0
2014-Nov-15 03:29N 35°31' E 139°46'0 0.3
2014-Nov-15 02:33N 35°31' E 139°46'7 7.2
2014-Nov-15 01:34N 35°24' E 139°44'1 0.8
2014-Nov-15 00:33N 35°23' E 139°45'4 4.0
2014-Nov-14 23:33N 35°19' E 139°43'1312.6
2014-Nov-14 22:33N 35°07' E 139°45'  
Track history (hours):
 
Tides and Currents Weather Stations Pressure Air Temp Water Temp Dewpoint Dewpoint Depression Visibility Wind Speed Wind Dir Waves Ship Positions

Shinsei Maru

Last reported at 2014-Nov-24 09:33 UTC. Time now 2014-Nov-24 13:50 UTC.
Position N 35°08' E 139°45'.

Length 104 m; draft 6.5 m.

Type: Tanker. MMSI: 431301775.

Date/timePositionNaut miles runAvg speedWind from/ knotsBaromVisibWave heightAir tempDewpointWater temp
2014-Nov-24 09:33N 35°08' E 139°45'1212.4
2014-Nov-24 08:33N 35°20' E 139°43'1111.2
2014-Nov-24 07:32N 35°31' E 139°46'0 0.2
2014-Nov-24 06:33N 35°31' E 139°46'0 0.0
2014-Nov-24 05:28N 35°31' E 139°46'0 0.0
2014-Nov-24 04:27N 35°31' E 139°46'0 0.0
2014-Nov-24 03:33N 35°31' E 139°46'0 0.0
2014-Nov-24 02:30N 35°31' E 139°46'0 0.0
2014-Nov-24 01:33N 35°31' E 139°46'0 0.4
2014-Nov-24 00:33N 35°31' E 139°46'7 7.2
2014-Nov-23 23:33N 35°24' E 139°45'0 0.4
2014-Nov-23 22:33N 35°23' E 139°45'0 0.0
2014-Nov-23 21:33N 35°23' E 139°45'0 0.1
2014-Nov-23 20:33N 35°23' E 139°45'4 3.5
2014-Nov-23 19:33N 35°20' E 139°43'247 7.0
2014-Nov-22 08:23N 33°57' E 135°01'1113.6
2014-Nov-22 07:33N 34°07' E 135°06'1 0.4
2014-Nov-22 04:21N 34°07' E 135°07'0 0.0
2014-Nov-22 03:09N 34°07' E 135°07'0 0.0
2014-Nov-22 01:09N 34°07' E 135°07'0 0.0
2014-Nov-22 00:15N 34°07' E 135°07'0 0.0
2014-Nov-21 23:15N 34°07' E 135°07'0 0.0
2014-Nov-21 22:21N 34°07' E 135°07'1 1.2
2014-Nov-21 21:31N 34°08' E 135°07'0 0.1
2014-Nov-21 20:31N 34°08' E 135°07'0 0.0
2014-Nov-21 19:31N 34°08' E 135°07'0 0.0
2014-Nov-21 18:31N 34°08' E 135°07'0 0.0
2014-Nov-21 17:31N 34°08' E 135°07'0 0.0
2014-Nov-21 16:28N 34°08' E 135°07'0 0.0
2014-Nov-21 15:31N 34°08' E 135°07'0 0.0
2014-Nov-21 14:31N 34°08' E 135°07'0 0.0
2014-Nov-21 13:19N 34°08' E 135°07'0 0.0
2014-Nov-21 12:31N 34°08' E 135°07'0 0.0
2014-Nov-21 11:25N 34°08' E 135°07'0 0.0
2014-Nov-21 10:31N 34°08' E 135°07'7 7.6
2014-Nov-21 09:33N 34°01' E 135°02'  
2014-Nov-15 14:19N 35°02' E 139°44'1113.8
2014-Nov-15 13:33N 35°12' E 139°46'1212.1
2014-Nov-15 12:34N 35°24' E 139°43'7 7.3
2014-Nov-15 11:32N 35°31' E 139°46'0 0.0
2014-Nov-15 10:29N 35°31' E 139°46'0 0.0
2014-Nov-15 09:32N 35°31' E 139°46'0 0.0
2014-Nov-15 08:29N 35°31' E 139°46'0 0.0
2014-Nov-15 07:29N 35°31' E 139°46'0 0.0
2014-Nov-15 06:29N 35°31' E 139°46'0 0.0
2014-Nov-15 05:29N 35°31' E 139°46'0 0.0
2014-Nov-15 04:29N 35°31' E 139°46'0 0.0
2014-Nov-15 03:29N 35°31' E 139°46'0 0.3
2014-Nov-15 02:33N 35°31' E 139°46'7 7.2
2014-Nov-15 01:34N 35°24' E 139°44'1 0.8
2014-Nov-15 00:33N 35°23' E 139°45'4 4.0
2014-Nov-14 23:33N 35°19' E 139°43'1312.6
2014-Nov-14 22:33N 35°07' E 139°45'  

Dump ship's entire track history